createdAt,value
2023-03-26T00:02:01.460Z,50.78
2023-03-26T00:05:06.790Z,52.00
2023-03-26T00:08:13.585Z,50.60
2023-03-26T00:11:19.651Z,49.08
2023-03-26T00:14:27.456Z,49.04
2023-03-26T00:17:31.858Z,48.03
2023-03-26T00:20:40.792Z,47.27
2023-03-26T00:23:50.108Z,47.58
2023-03-26T00:26:54.824Z,47.08
2023-03-26T00:30:00.624Z,45.91
2023-03-26T00:33:09.601Z,44.93
2023-03-26T00:36:20.872Z,44.98
2023-03-26T00:39:26.548Z,44.82
2023-03-26T00:42:31.055Z,43.95
2023-03-26T00:45:37.741Z,42.61
2023-03-26T00:48:46.025Z,42.53
2023-03-26T00:51:56.763Z,41.95
2023-03-26T00:55:01.348Z,41.56
2023-03-26T00:58:13.372Z,40.73
2023-03-26T01:01:23.259Z,40.76
2023-03-26T01:04:35.430Z,39.83
2023-03-26T01:07:43.589Z,39.85
2023-03-26T01:10:51.692Z,38.70
2023-03-26T01:14:00.768Z,37.50
2023-03-26T01:17:07.529Z,37.08
2023-03-26T01:20:27.322Z,35.39
2023-03-26T01:23:47.315Z,36.54
2023-03-26T01:27:30.143Z,35.05
2023-03-26T01:30:50.219Z,36.59
2023-03-26T01:34:05.075Z,37.10
2023-03-26T01:37:31.328Z,35.44
2023-03-26T01:40:43.577Z,35.09
2023-03-26T01:44:35.256Z,36.41
2023-03-26T01:47:42.961Z,37.99
2023-03-26T01:50:52.145Z,37.83
2023-03-26T01:53:57.749Z,38.69
2023-03-26T01:57:19.837Z,38.39
2023-03-26T02:00:34.821Z,38.81
2023-03-26T02:03:52.813Z,38.91
2023-03-26T02:07:06.819Z,39.38
2023-03-26T02:10:21.890Z,38.15
2023-03-26T02:13:27.473Z,40.54
2023-03-26T02:16:31.572Z,39.95
2023-03-26T02:19:36.684Z,38.71
2023-03-26T02:22:42.122Z,37.98
2023-03-26T02:25:47.971Z,37.67
2023-03-26T02:28:52.077Z,37.20
2023-03-26T02:31:56.636Z,37.64
2023-03-26T02:35:02.116Z,37.98
2023-03-26T02:38:07.531Z,36.94
2023-03-26T02:41:12.125Z,38.62
2023-03-26T02:44:42.719Z,39.27
2023-03-26T02:47:51.868Z,38.47
2023-03-26T02:51:21.952Z,39.17
2023-03-26T02:54:39.157Z,38.92
2023-03-26T02:58:02.653Z,38.76
2023-03-26T03:01:14.225Z,38.56
2023-03-26T03:04:26.581Z,37.70
2023-03-26T03:07:30.955Z,37.40
2023-03-26T03:10:40.056Z,37.71
2023-03-26T03:13:58.738Z,38.07
2023-03-26T03:17:06.167Z,37.71
2023-03-26T03:20:22.716Z,37.71
2023-03-26T03:23:27.405Z,37.93
2023-03-26T03:26:43.404Z,37.47
2023-03-26T03:30:07.884Z,37.21
2023-03-26T03:33:33.218Z,37.46
2023-03-26T03:36:41.260Z,37.66
2023-03-26T03:40:00.692Z,37.07
2023-03-26T03:43:09.381Z,37.81
2023-03-26T03:46:21.807Z,36.71
2023-03-26T03:49:31.377Z,38.22
2023-03-26T03:52:38.916Z,37.26
2023-03-26T03:55:55.128Z,38.60
2023-03-26T03:59:03.562Z,39.41
2023-03-26T04:02:12.484Z,38.61
2023-03-26T04:05:24.419Z,39.19
2023-03-26T04:08:30.089Z,39.52
2023-03-26T04:11:38.830Z,37.82
2023-03-26T04:15:02.932Z,37.50
2023-03-26T04:18:11.424Z,38.70
2023-03-26T04:21:25.880Z,39.85
2023-03-26T04:24:39.169Z,39.93
2023-03-26T04:28:07.629Z,41.32
2023-03-26T04:31:46.056Z,39.78
2023-03-26T04:34:51.923Z,39.71
2023-03-26T04:38:07.300Z,37.65
2023-03-26T04:41:21.129Z,37.76
2023-03-26T04:44:32.518Z,37.50
2023-03-26T04:47:41.481Z,37.48
2023-03-26T04:50:47.141Z,37.55
2023-03-26T04:54:00.583Z,37.32
2023-03-26T04:57:14.873Z,36.79
2023-03-26T05:00:42.699Z,37.31
2023-03-26T05:03:46.918Z,34.78
2023-03-26T05:06:56.671Z,36.47
2023-03-26T05:10:23.607Z,36.67
2023-03-26T05:13:35.784Z,36.20
2023-03-26T05:16:49.278Z,36.88
2023-03-26T05:19:54.074Z,37.70
2023-03-26T05:22:58.567Z,36.85
2023-03-26T05:26:25.549Z,37.12
2023-03-26T05:29:29.710Z,36.76
2023-03-26T05:32:34.803Z,36.77
2023-03-26T05:35:39.325Z,36.27
2023-03-26T05:38:50.313Z,37.75
2023-03-26T05:42:17.946Z,39.18
2023-03-26T05:45:57.509Z,39.49
2023-03-26T05:49:05.321Z,40.58
2023-03-26T05:52:15.998Z,40.35
2023-03-26T05:55:41.326Z,40.14
2023-03-26T05:59:03.631Z,39.94
2023-03-26T06:02:26.496Z,39.94
2023-03-26T06:06:11.722Z,38.97
2023-03-26T06:09:23.782Z,40.48
2023-03-26T06:12:28.994Z,39.95
2023-03-26T06:15:33.322Z,39.58
2023-03-26T06:18:41.245Z,42.33
2023-03-26T06:22:06.243Z,41.28
2023-03-26T06:25:26.976Z,41.80
2023-03-26T06:28:44.910Z,42.00
2023-03-26T06:32:19.183Z,42.57
2023-03-26T06:35:39.269Z,42.87
2023-03-26T06:38:43.632Z,41.80
2023-03-26T06:41:50.036Z,41.52
2023-03-26T06:45:15.963Z,40.79
2023-03-26T06:48:52.914Z,42.21
2023-03-26T06:52:15.756Z,42.43
2023-03-26T06:55:28.451Z,43.08
2023-03-26T06:58:49.401Z,43.32
2023-03-26T07:02:17.333Z,44.11
2023-03-26T07:05:42.490Z,44.51
2023-03-26T07:09:05.417Z,44.87
2023-03-26T07:12:16.657Z,43.19
2023-03-26T07:15:59.782Z,44.96
2023-03-26T07:19:39.185Z,44.92
2023-03-26T07:22:43.786Z,45.03
2023-03-26T07:25:53.875Z,44.32
2023-03-26T07:29:46.880Z,43.83
2023-03-26T07:33:19.524Z,44.53
2023-03-26T07:37:17.104Z,43.71
2023-03-26T07:41:20.182Z,42.73
2023-03-26T07:44:54.908Z,43.51
2023-03-26T07:48:30.385Z,43.66
2023-03-26T07:51:55.251Z,43.32
2023-03-26T07:55:20.617Z,43.98
2023-03-26T07:59:27.904Z,43.79
2023-03-26T08:03:00.398Z,43.29
2023-03-26T08:06:41.300Z,44.03
2023-03-26T08:10:00.864Z,44.02
2023-03-26T08:13:31.825Z,43.90
2023-03-26T08:17:05.901Z,43.07
2023-03-26T08:20:21.703Z,43.60
2023-03-26T08:23:50.735Z,43.40
2023-03-26T08:27:03.604Z,43.79
2023-03-26T08:30:19.391Z,44.05
2023-03-26T08:33:27.866Z,43.69
2023-03-26T08:36:32.682Z,43.60
2023-03-26T08:39:39.638Z,44.36
2023-03-26T08:43:07.324Z,44.15
2023-03-26T08:46:16.602Z,43.25
2023-03-26T08:49:32.710Z,42.24
2023-03-26T08:52:53.441Z,43.62
2023-03-26T08:56:13.885Z,43.01
2023-03-26T08:59:46.625Z,43.68
2023-03-26T09:03:16.977Z,42.60
2023-03-26T09:06:39.278Z,42.46
2023-03-26T09:09:55.456Z,43.10
2023-03-26T09:13:08.707Z,44.29
2023-03-26T09:16:19.117Z,44.29
2023-03-26T09:19:43.356Z,45.63
2023-03-26T09:23:14.652Z,45.37
2023-03-26T09:26:31.782Z,45.55
2023-03-26T09:29:57.833Z,46.70
2023-03-26T09:33:18.011Z,47.83
2023-03-26T09:36:31.167Z,47.41
2023-03-26T09:39:45.917Z,46.41
2023-03-26T09:42:54.946Z,46.16
2023-03-26T09:46:12.482Z,46.72
2023-03-26T09:49:25.561Z,46.68
2023-03-26T09:52:48.107Z,46.97
2023-03-26T09:56:05.258Z,47.70
2023-03-26T09:59:39.693Z,48.13
2023-03-26T10:03:07.023Z,47.52
2023-03-26T10:06:38.758Z,48.01
2023-03-26T10:10:01.518Z,48.00
2023-03-26T10:13:25.472Z,48.30
2023-03-26T10:17:03.896Z,50.06
2023-03-26T10:20:20.817Z,52.25
2023-03-26T10:23:58.572Z,53.36
2023-03-26T10:27:17.651Z,53.94
2023-03-26T10:30:56.745Z,54.95
2023-03-26T10:34:38.247Z,55.26
2023-03-26T10:38:01.512Z,54.48
2023-03-26T10:41:22.551Z,55.36
2023-03-26T10:45:00.268Z,55.96
2023-03-26T10:48:15.399Z,54.13
2023-03-26T10:51:25.512Z,54.59
2023-03-26T10:55:04.971Z,55.37
2023-03-26T10:58:48.713Z,55.57
2023-03-26T11:02:17.143Z,54.15
2023-03-26T11:05:47.343Z,53.29
2023-03-26T11:09:19.636Z,54.43
2023-03-26T11:12:33.152Z,53.14
2023-03-26T11:15:47.951Z,52.73
2023-03-26T11:19:18.265Z,53.70
2023-03-26T11:22:28.498Z,52.49
2023-03-26T11:26:00.379Z,52.04
2023-03-26T11:29:31.033Z,52.20
2023-03-26T11:33:01.780Z,52.05
2023-03-26T11:36:17.588Z,52.37
2023-03-26T11:39:28.061Z,52.22
2023-03-26T11:42:32.278Z,51.54
2023-03-26T11:45:40.120Z,51.95
2023-03-26T11:48:54.271Z,52.07
2023-03-26T11:51:59.974Z,51.40
2023-03-26T11:55:04.338Z,51.62
2023-03-26T11:58:32.603Z,51.56
2023-03-26T12:01:59.513Z,51.25
2023-03-26T12:05:17.291Z,51.20
2023-03-26T12:08:33.331Z,51.34
2023-03-26T12:11:40.259Z,51.43
2023-03-26T12:14:45.600Z,51.49
2023-03-26T12:17:54.396Z,50.62
2023-03-26T12:21:28.387Z,51.03
2023-03-26T12:24:35.137Z,50.72
2023-03-26T12:27:45.718Z,50.45
2023-03-26T12:31:09.148Z,51.33
2023-03-26T12:34:21.910Z,51.66
2023-03-26T12:37:41.053Z,52.07
2023-03-26T12:40:45.992Z,51.70
2023-03-26T12:44:52.814Z,52.11
2023-03-26T12:47:57.381Z,52.27
2023-03-26T12:51:04.902Z,52.34
2023-03-26T12:54:38.135Z,52.55
2023-03-26T12:58:13.669Z,51.97
2023-03-26T13:01:46.652Z,51.86
2023-03-26T13:05:09.412Z,52.10
2023-03-26T13:08:44.429Z,52.19
2023-03-26T13:12:35.287Z,51.32
2023-03-26T13:16:02.818Z,51.81
2023-03-26T13:19:28.004Z,51.85
2023-03-26T13:23:24.472Z,51.71
2023-03-26T13:26:46.919Z,52.16
2023-03-26T13:30:32.067Z,51.54
2023-03-26T13:34:08.577Z,51.09
2023-03-26T13:37:47.404Z,51.34
2023-03-26T13:40:58.355Z,50.92
2023-03-26T13:44:17.677Z,51.46
2023-03-26T13:47:27.248Z,51.67
2023-03-26T13:50:42.151Z,54.29
2023-03-26T13:53:56.145Z,53.53
2023-03-26T13:57:08.540Z,53.21
2023-03-26T14:00:19.148Z,53.74
2023-03-26T14:03:46.151Z,56.91
2023-03-26T14:06:58.056Z,56.26
2023-03-26T14:10:16.714Z,54.25
2023-03-26T14:13:28.849Z,56.44
2023-03-26T14:16:49.277Z,58.23
2023-03-26T14:20:12.089Z,58.57
2023-03-26T14:23:40.786Z,58.51
2023-03-26T14:27:14.769Z,59.21
2023-03-26T14:30:18.955Z,59.03
2023-03-26T14:33:43.462Z,59.71
2023-03-26T14:37:18.897Z,59.92
2023-03-26T14:40:58.353Z,59.59
2023-03-26T14:44:30.067Z,59.60
2023-03-26T14:48:33.610Z,60.25
2023-03-26T14:52:02.222Z,59.83
2023-03-26T14:55:18.312Z,59.78
2023-03-26T14:58:46.028Z,60.82
2023-03-26T15:02:02.549Z,59.88
2023-03-26T15:05:28.369Z,60.16
2023-03-26T15:08:59.205Z,61.14
2023-03-26T15:12:22.027Z,61.57
2023-03-26T15:15:54.305Z,62.20
2023-03-26T15:19:37.418Z,62.24
2023-03-26T15:23:22.420Z,63.38
2023-03-26T15:26:48.400Z,62.65
2023-03-26T15:30:23.298Z,61.86
2023-03-26T15:33:44.936Z,63.40
2023-03-26T15:37:04.431Z,63.01
2023-03-26T15:40:26.771Z,62.63
2023-03-26T15:47:44.104Z,63.62
2023-03-26T15:51:29.903Z,63.33
2023-03-26T15:54:58.138Z,61.69
2023-03-26T15:58:27.464Z,62.61
2023-03-26T16:01:52.873Z,63.13
2023-03-26T16:05:20.519Z,62.29
2023-03-26T16:08:56.870Z,60.86
2023-03-26T16:12:13.251Z,60.75
2023-03-26T16:15:32.929Z,61.74
2023-03-26T16:18:39.070Z,61.15
2023-03-26T16:22:02.966Z,63.25
2023-03-26T16:25:35.154Z,60.94
2023-03-26T16:29:04.965Z,61.45
2023-03-26T16:32:17.024Z,60.70
2023-03-26T16:35:21.472Z,61.28
2023-03-26T16:38:30.780Z,61.70
2023-03-26T16:41:41.490Z,61.68
2023-03-26T16:45:07.675Z,61.45
2023-03-26T16:48:31.483Z,61.67
2023-03-26T16:51:54.634Z,63.37
2023-03-26T16:55:17.706Z,62.62
2023-03-26T16:58:38.752Z,62.73
2023-03-26T17:01:58.449Z,63.06
2023-03-26T17:05:26.224Z,63.60
2023-03-26T17:08:45.058Z,62.00
2023-03-26T17:12:00.777Z,62.72
2023-03-26T17:15:16.133Z,63.35
2023-03-26T17:18:26.558Z,63.75
2023-03-26T17:21:46.855Z,63.66
2023-03-26T17:25:36.036Z,63.64
2023-03-26T17:29:12.021Z,63.88
2023-03-26T17:32:16.872Z,64.29
2023-03-26T17:35:44.751Z,63.45
2023-03-26T17:38:49.033Z,62.60
2023-03-26T17:42:13.410Z,61.63
2023-03-26T17:45:25.883Z,62.70
2023-03-26T17:48:36.320Z,63.92
2023-03-26T17:51:52.903Z,63.80
2023-03-26T17:54:58.075Z,64.53
2023-03-26T17:58:20.100Z,64.22
2023-03-26T18:01:44.945Z,66.12
2023-03-26T18:04:53.702Z,64.61
2023-03-26T18:08:16.147Z,64.11
2023-03-26T18:11:54.926Z,64.12
2023-03-26T18:15:28.812Z,64.25
2023-03-26T18:18:36.339Z,62.71
2023-03-26T18:21:41.937Z,62.05
2023-03-26T18:24:47.239Z,63.44
2023-03-26T18:27:52.346Z,64.60
2023-03-26T18:30:56.916Z,63.89
2023-03-26T18:34:13.104Z,64.31
2023-03-26T18:37:20.423Z,64.22
2023-03-26T18:40:27.777Z,63.61
2023-03-26T18:43:43.717Z,63.97
2023-03-26T18:46:49.315Z,63.61
2023-03-26T18:49:57.988Z,64.68
2023-03-26T18:53:02.996Z,65.19
2023-03-26T18:56:32.930Z,64.68
2023-03-26T18:59:41.233Z,63.46
2023-03-26T19:02:48.797Z,64.45
2023-03-26T19:05:57.600Z,64.74
2023-03-26T19:09:02.301Z,64.84
2023-03-26T19:12:29.450Z,65.60
2023-03-26T19:15:36.373Z,63.76
2023-03-26T19:18:44.029Z,65.08
2023-03-26T19:21:50.289Z,65.18
2023-03-26T19:25:00.639Z,64.92
2023-03-26T19:28:08.512Z,65.46
2023-03-26T19:35:05.281Z,66.56
2023-03-26T19:38:23.986Z,66.23
2023-03-26T19:41:44.407Z,67.35
2023-03-26T19:44:51.232Z,68.76
2023-03-26T19:48:07.745Z,67.56
2023-03-26T19:51:32.541Z,66.49
2023-03-26T19:54:59.719Z,66.05
2023-03-26T19:58:06.907Z,66.27
2023-03-26T20:01:18.722Z,66.70
2023-03-26T20:04:23.166Z,65.98
2023-03-26T20:07:35.938Z,65.65
2023-03-26T20:10:40.736Z,66.60
2023-03-26T20:13:45.119Z,66.61
2023-03-26T20:16:49.096Z,67.59
2023-03-26T20:19:55.112Z,66.89
2023-03-26T20:22:59.801Z,67.75
2023-03-26T20:26:04.181Z,68.12
2023-03-26T20:29:08.639Z,66.59
2023-03-26T20:32:25.601Z,67.45
2023-03-26T20:35:36.203Z,67.14
2023-03-26T20:38:45.757Z,67.76
2023-03-26T20:41:51.874Z,67.28
2023-03-26T20:44:55.960Z,66.19
2023-03-26T20:48:00.150Z,67.31
2023-03-26T20:51:06.009Z,69.33
2023-03-26T20:54:23.972Z,66.58
2023-03-26T20:57:28.309Z,66.56
2023-03-26T21:00:33.297Z,66.13
2023-03-26T21:03:39.005Z,66.34
2023-03-26T21:06:44.016Z,67.76
2023-03-26T21:09:51.400Z,66.83
2023-03-26T21:13:12.074Z,65.94
2023-03-26T21:16:16.829Z,66.42
2023-03-26T21:19:25.012Z,66.47
2023-03-26T21:23:02.594Z,66.66
2023-03-26T21:26:33.895Z,65.59
2023-03-26T21:29:47.637Z,64.06
2023-03-26T21:32:52.998Z,65.11
2023-03-26T21:39:19.057Z,66.21
2023-03-26T21:42:30.054Z,66.02
2023-03-26T21:45:34.899Z,63.23
2023-03-26T21:48:39.323Z,61.59
2023-03-26T21:51:44.585Z,59.50
2023-03-26T21:54:49.259Z,58.32
2023-03-26T21:58:05.396Z,59.98
2023-03-26T22:01:18.659Z,57.37
2023-03-26T22:04:25.247Z,59.03
2023-03-26T22:07:39.605Z,55.96
2023-03-26T22:10:43.992Z,55.13
2023-03-26T22:13:48.348Z,54.49
2023-03-26T22:16:52.319Z,52.24
2023-03-26T22:19:57.209Z,49.53
2023-03-26T22:23:02.591Z,49.71
2023-03-26T22:26:07.272Z,49.57
2023-03-26T22:29:11.294Z,47.36
2023-03-26T22:32:15.174Z,47.25
2023-03-26T22:35:19.871Z,45.49
2023-03-26T22:38:24.633Z,47.61
2023-03-26T22:41:30.577Z,46.65
2023-03-26T22:44:34.891Z,49.52
2023-03-26T22:47:39.259Z,48.16
2023-03-26T22:50:44.611Z,46.01
2023-03-26T22:53:48.973Z,44.67
2023-03-26T22:56:53.481Z,45.70
2023-03-26T22:59:59.378Z,45.71
2023-03-26T23:03:03.479Z,42.91
2023-03-26T23:06:10.701Z,48.22
2023-03-26T23:09:15.739Z,45.58
2023-03-26T23:12:20.340Z,45.53
2023-03-26T23:15:26.710Z,42.04
2023-03-26T23:18:31.352Z,39.98
2023-03-26T23:21:37.592Z,38.27
2023-03-26T23:24:41.506Z,38.39
2023-03-26T23:27:45.704Z,38.64
2023-03-26T23:30:54.922Z,39.24
2023-03-26T23:34:00.594Z,37.61
2023-03-26T23:37:05.519Z,36.14
2023-03-26T23:40:11.196Z,37.57
2023-03-26T23:43:16.119Z,38.69
2023-03-26T23:46:22.996Z,38.12
2023-03-26T23:49:28.065Z,38.10
2023-03-26T23:52:32.784Z,37.86
2023-03-26T23:55:37.204Z,36.99
2023-03-26T23:58:41.580Z,36.32
